createdAt,value
2017-11-10T00:00:20.691Z,7.60
2017-11-10T00:02:48.938Z,7.60
2017-11-10T00:05:17.930Z,7.60
2017-11-10T00:07:46.989Z,7.60
2017-11-10T00:10:15.234Z,7.60
2017-11-10T00:12:43.490Z,7.70
2017-11-10T00:15:12.528Z,7.70
2017-11-10T00:17:40.766Z,7.70
2017-11-10T00:20:09.792Z,7.70
2017-11-10T00:22:38.845Z,7.70
2017-11-10T00:25:07.192Z,7.70
2017-11-10T00:27:35.451Z,7.60
2017-11-10T00:30:03.722Z,7.60
2017-11-10T00:32:31.976Z,7.50
2017-11-10T00:35:00.256Z,7.60
2017-11-10T00:37:30.034Z,7.60
2017-11-10T00:39:58.298Z,7.60
2017-11-10T00:42:26.562Z,7.70
2017-11-10T00:44:54.837Z,7.60
2017-11-10T00:47:23.853Z,7.60
2017-11-10T00:49:52.115Z,7.60
2017-11-10T00:52:20.388Z,7.60
2017-11-10T00:54:49.410Z,7.60
2017-11-10T00:57:17.711Z,7.70
2017-11-10T00:59:46.170Z,7.60
2017-11-10T01:02:14.480Z,7.70
2017-11-10T01:04:42.740Z,7.70
2017-11-10T01:07:11.009Z,7.80
2017-11-10T01:09:39.329Z,7.70
2017-11-10T01:12:08.919Z,7.80
2017-11-10T01:14:37.171Z,7.80
2017-11-10T01:17:06.618Z,7.80
2017-11-10T01:19:34.864Z,7.80
2017-11-10T01:22:03.903Z,7.90
2017-11-10T01:24:32.147Z,7.80
2017-11-10T01:27:00.460Z,7.80
2017-11-10T01:29:28.712Z,7.80
2017-11-10T01:31:56.985Z,7.70
2017-11-10T01:34:26.000Z,7.70
2017-11-10T01:36:54.268Z,7.70
2017-11-10T01:39:23.284Z,7.80
2017-11-10T01:41:51.557Z,7.80
2017-11-10T01:44:19.803Z,7.80
2017-11-10T01:46:48.059Z,7.70
2017-11-10T01:49:20.324Z,7.60
2017-11-10T01:51:48.593Z,7.60
2017-11-10T01:54:16.864Z,7.70
2017-11-10T01:56:45.155Z,7.80
2017-11-10T01:59:13.419Z,7.90
2017-11-10T02:01:41.692Z,7.90
2017-11-10T02:04:09.949Z,7.90
2017-11-10T02:06:38.203Z,7.90
2017-11-10T02:09:06.471Z,7.90
2017-11-10T02:11:34.747Z,7.90
2017-11-10T02:14:02.993Z,7.80
2017-11-10T02:16:31.307Z,7.80
2017-11-10T02:18:59.575Z,7.80
2017-11-10T02:21:27.846Z,7.90
2017-11-10T02:23:56.087Z,7.90
2017-11-10T02:26:24.360Z,8.00
2017-11-10T02:28:52.616Z,8.00
2017-11-10T02:31:20.884Z,7.90
2017-11-10T02:33:49.175Z,7.90
2017-11-10T02:36:17.444Z,7.90
2017-11-10T02:38:47.656Z,7.90
2017-11-10T02:41:15.940Z,7.90
2017-11-10T02:43:44.963Z,7.90
2017-11-10T02:46:13.233Z,7.80
2017-11-10T02:48:41.522Z,7.90
2017-11-10T02:51:09.801Z,7.90
2017-11-10T02:53:38.074Z,7.80
2017-11-10T02:56:06.327Z,7.80
2017-11-10T02:58:35.368Z,7.80
2017-11-10T03:01:03.643Z,7.80
2017-11-10T03:03:31.897Z,7.90
2017-11-10T03:06:00.168Z,7.90
2017-11-10T03:08:29.187Z,7.80
2017-11-10T03:10:57.455Z,7.80
2017-11-10T03:13:25.723Z,7.90
2017-11-10T03:15:54.755Z,7.90
2017-11-10T03:18:23.011Z,7.90
2017-11-10T03:20:51.280Z,7.90
2017-11-10T03:23:20.300Z,7.90
2017-11-10T03:25:48.572Z,7.90
2017-11-10T03:28:16.882Z,8.00
2017-11-10T03:30:45.156Z,7.90
2017-11-10T03:33:13.445Z,7.90
2017-11-10T03:35:41.705Z,7.80
2017-11-10T03:38:09.963Z,7.70
2017-11-10T03:40:39.000Z,7.60
2017-11-10T03:43:07.251Z,7.60
2017-11-10T03:45:36.298Z,7.50
2017-11-10T03:48:04.537Z,7.50
2017-11-10T03:50:32.802Z,7.50
2017-11-10T03:53:01.825Z,7.40
2017-11-10T03:55:30.080Z,7.40
2017-11-10T03:57:58.346Z,7.40
2017-11-10T04:00:27.400Z,7.30
2017-11-10T04:02:55.675Z,7.30
2017-11-10T04:05:23.931Z,7.20
2017-11-10T04:07:52.204Z,7.20
2017-11-10T04:10:20.451Z,7.10
2017-11-10T04:12:48.722Z,7.00
2017-11-10T04:15:16.974Z,7.00
2017-11-10T04:17:45.244Z,7.00
2017-11-10T04:20:13.513Z,7.00
2017-11-10T04:22:41.799Z,6.90
2017-11-10T04:25:10.030Z,6.90
2017-11-10T04:27:38.296Z,6.90
2017-11-10T04:30:06.559Z,6.90
2017-11-10T04:32:34.832Z,6.90
2017-11-10T04:35:03.124Z,6.90
2017-11-10T04:37:31.404Z,6.90
2017-11-10T04:39:59.659Z,6.80
2017-11-10T04:42:27.940Z,6.90
2017-11-10T04:44:56.242Z,6.80
2017-11-10T04:47:24.524Z,6.80
2017-11-10T04:49:52.771Z,6.80
2017-11-10T04:52:21.066Z,6.80
2017-11-10T04:54:49.365Z,6.70
2017-11-10T04:57:17.635Z,6.70
2017-11-10T04:59:45.943Z,6.70
2017-11-10T05:02:14.195Z,6.60
2017-11-10T05:04:42.486Z,6.60
2017-11-10T05:07:10.765Z,6.50
2017-11-10T05:09:39.012Z,6.50
2017-11-10T05:12:07.274Z,6.50
2017-11-10T05:14:36.318Z,6.40
2017-11-10T05:17:04.568Z,6.40
2017-11-10T05:19:33.594Z,6.40
2017-11-10T05:22:01.852Z,6.40
2017-11-10T05:24:30.176Z,6.50
2017-11-10T05:26:58.444Z,6.40
2017-11-10T05:29:26.697Z,6.40
2017-11-10T05:31:54.955Z,6.30
2017-11-10T05:34:23.972Z,6.30
2017-11-10T05:36:52.266Z,6.30
2017-11-10T05:39:20.527Z,6.30
2017-11-10T05:41:49.547Z,6.30
2017-11-10T05:44:17.796Z,6.30
2017-11-10T05:46:46.824Z,6.30
2017-11-10T05:49:15.126Z,6.30
2017-11-10T05:51:43.406Z,6.40
2017-11-10T05:54:11.647Z,6.40
2017-11-10T05:56:40.685Z,6.30
2017-11-10T05:59:08.942Z,6.30
2017-11-10T06:01:37.232Z,6.30
2017-11-10T06:04:05.485Z,6.30
2017-11-10T06:06:34.517Z,6.40
2017-11-10T06:09:02.777Z,6.40
2017-11-10T06:11:31.784Z,6.30
2017-11-10T06:14:00.049Z,6.30
2017-11-10T06:16:28.300Z,6.40
2017-11-10T06:18:56.565Z,6.40
2017-11-10T06:21:24.923Z,6.30
2017-11-10T06:23:53.196Z,6.40
2017-11-10T06:26:21.448Z,6.40
2017-11-10T06:28:49.725Z,6.40
2017-11-10T06:31:18.744Z,6.40
2017-11-10T06:33:47.031Z,6.40
2017-11-10T06:36:15.291Z,6.40
2017-11-10T06:38:44.167Z,6.40
2017-11-10T06:41:13.211Z,6.40
2017-11-10T06:43:41.494Z,6.40
2017-11-10T06:46:09.743Z,6.40
2017-11-10T06:48:38.012Z,6.40
2017-11-10T06:51:07.032Z,6.40
2017-11-10T06:53:36.058Z,6.30
2017-11-10T06:56:04.317Z,6.30
2017-11-10T06:58:32.584Z,6.30
2017-11-10T07:01:01.652Z,6.40
2017-11-10T07:03:29.995Z,6.40
2017-11-10T07:05:58.284Z,6.30
2017-11-10T07:08:26.566Z,6.40
2017-11-10T07:10:54.883Z,6.40
2017-11-10T07:13:23.173Z,6.50
2017-11-10T07:15:51.422Z,6.50
2017-11-10T07:18:19.699Z,6.40
2017-11-10T07:20:47.960Z,6.50
2017-11-10T07:23:16.230Z,6.40
2017-11-10T07:25:44.527Z,6.40
2017-11-10T07:28:12.815Z,6.50
2017-11-10T07:30:41.068Z,6.50
2017-11-10T07:33:09.335Z,6.50
2017-11-10T07:35:38.349Z,6.50
2017-11-10T07:38:06.643Z,6.50
2017-11-10T07:40:34.921Z,6.50
2017-11-10T07:43:03.191Z,6.50
2017-11-10T07:45:31.454Z,6.60
2017-11-10T07:48:00.489Z,6.60
2017-11-10T07:50:28.736Z,6.50
2017-11-10T07:52:57.052Z,6.60
2017-11-10T07:55:25.335Z,6.50
2017-11-10T07:57:54.371Z,6.50
2017-11-10T08:00:22.625Z,6.50
2017-11-10T08:02:50.901Z,6.60
2017-11-10T08:05:19.197Z,6.60
2017-11-10T08:07:47.763Z,6.60
2017-11-10T08:10:16.017Z,6.50
2017-11-10T08:12:44.300Z,6.60
2017-11-10T08:15:12.573Z,6.70
2017-11-10T08:17:41.584Z,6.70
2017-11-10T08:20:09.922Z,6.70
2017-11-10T08:22:38.156Z,6.70
2017-11-10T08:25:06.424Z,6.80
2017-11-10T08:27:34.701Z,6.80
2017-11-10T08:30:03.011Z,6.80
2017-11-10T08:32:31.260Z,6.80
2017-11-10T08:34:59.527Z,6.90
2017-11-10T08:37:28.535Z,6.90
2017-11-10T08:39:56.796Z,6.90
2017-11-10T08:42:25.822Z,7.00
2017-11-10T08:44:54.082Z,7.00
2017-11-10T08:47:23.102Z,7.10
2017-11-10T08:49:51.370Z,7.10
2017-11-10T08:52:20.385Z,7.20
2017-11-10T08:54:48.694Z,7.10
2017-11-10T08:57:16.957Z,7.20
2017-11-10T08:59:45.224Z,7.20
2017-11-10T09:02:13.469Z,7.20
2017-11-10T09:04:41.841Z,7.30
2017-11-10T09:07:10.069Z,7.30
2017-11-10T09:09:38.329Z,7.30
2017-11-10T09:12:07.365Z,7.30
2017-11-10T09:14:35.643Z,7.30
2017-11-10T09:17:04.197Z,7.30
2017-11-10T09:19:33.235Z,7.50
2017-11-10T09:22:01.488Z,7.40
2017-11-10T09:24:29.756Z,7.40
2017-11-10T09:26:58.773Z,7.40
2017-11-10T09:29:35.635Z,7.40
2017-11-10T09:32:06.133Z,7.40
2017-11-10T09:34:40.052Z,7.40
2017-11-10T09:40:19.412Z,7.40
2017-11-10T09:42:53.262Z,7.40
2017-11-10T09:45:37.984Z,7.40
2017-11-10T09:48:11.957Z,7.40
2017-11-10T09:50:45.854Z,7.40
2017-11-10T09:56:34.510Z,7.40
2017-11-10T10:02:25.840Z,7.30
2017-11-10T10:04:55.036Z,7.20
2017-11-10T10:10:36.922Z,7.30
2017-11-10T10:13:10.957Z,7.30
2017-11-10T10:15:44.969Z,7.20
2017-11-10T10:18:18.814Z,7.20
2017-11-10T10:21:03.877Z,7.30
2017-11-10T10:23:32.128Z,7.20
2017-11-10T10:26:01.162Z,7.20
2017-11-10T10:28:29.417Z,7.20
2017-11-10T10:30:57.679Z,7.20
2017-11-10T10:33:25.932Z,7.30
2017-11-10T10:35:54.204Z,7.40
2017-11-10T10:38:22.556Z,7.30
2017-11-10T10:40:50.835Z,7.40
2017-11-10T10:43:19.093Z,7.30
2017-11-10T10:45:47.364Z,7.30
2017-11-10T10:48:15.625Z,7.40
2017-11-10T10:50:44.660Z,7.40
2017-11-10T10:53:12.965Z,7.40
2017-11-10T10:55:41.201Z,7.50
2017-11-10T10:58:09.524Z,7.40
2017-11-10T11:00:37.810Z,7.50
2017-11-10T11:03:06.348Z,7.40
2017-11-10T11:05:34.653Z,7.50
2017-11-10T11:08:02.922Z,7.50
2017-11-10T11:10:31.189Z,7.50
2017-11-10T11:12:59.472Z,7.50
2017-11-10T11:15:27.727Z,7.60
2017-11-10T11:17:56.000Z,7.60
2017-11-10T11:20:24.248Z,7.50
2017-11-10T11:22:52.516Z,7.60
2017-11-10T11:25:20.779Z,7.60
2017-11-10T11:27:49.065Z,7.70
2017-11-10T11:30:17.350Z,7.70
2017-11-10T11:32:45.612Z,7.70
2017-11-10T11:35:14.635Z,7.70
2017-11-10T11:37:42.940Z,7.70
2017-11-10T11:40:12.079Z,7.70
2017-11-10T11:42:41.108Z,7.70
2017-11-10T11:45:09.427Z,7.70
2017-11-10T11:47:37.722Z,7.60
2017-11-10T11:50:06.063Z,7.70
2017-11-10T11:52:34.340Z,7.70
2017-11-10T11:55:02.617Z,7.70
2017-11-10T11:57:30.885Z,7.70
2017-11-10T11:59:59.933Z,7.70
2017-11-10T12:02:28.196Z,7.60
2017-11-10T12:04:56.450Z,7.70
2017-11-10T12:07:24.717Z,7.70
2017-11-10T12:09:53.749Z,7.80
2017-11-10T12:12:22.017Z,7.80
2017-11-10T12:14:50.592Z,7.80
2017-11-10T12:17:20.211Z,7.80
2017-11-10T12:19:48.760Z,7.80
2017-11-10T12:22:17.577Z,7.80
2017-11-10T12:24:46.201Z,7.90
2017-11-10T12:27:15.029Z,7.90
2017-11-10T12:29:44.092Z,7.90
2017-11-10T12:32:12.353Z,7.90
2017-11-10T12:34:40.613Z,7.90
2017-11-10T12:37:09.638Z,8.00
2017-11-10T12:39:37.891Z,7.90
2017-11-10T12:42:07.441Z,7.90
2017-11-10T12:44:35.712Z,7.90
2017-11-10T12:47:03.954Z,7.90
2017-11-10T12:49:32.216Z,7.90
2017-11-10T12:52:00.453Z,7.90
2017-11-10T12:54:28.712Z,7.90
2017-11-10T12:56:57.726Z,7.90
2017-11-10T12:59:25.989Z,8.00
2017-11-10T13:01:55.004Z,8.00
2017-11-10T13:04:23.308Z,7.90
2017-11-10T13:06:51.568Z,7.90
2017-11-10T13:09:20.669Z,7.90
2017-11-10T13:11:48.937Z,8.00
2017-11-10T13:14:18.005Z,8.00
2017-11-10T13:16:46.272Z,8.00
2017-11-10T13:19:14.534Z,8.00
2017-11-10T13:21:42.809Z,8.00
2017-11-10T13:24:11.056Z,7.90
2017-11-10T13:26:39.301Z,8.00
2017-11-10T13:29:07.556Z,8.00
2017-11-10T13:31:35.796Z,8.00
2017-11-10T13:34:04.049Z,8.00
2017-11-10T13:36:32.382Z,8.00
2017-11-10T13:39:00.654Z,8.00
2017-11-10T13:41:28.935Z,8.00
2017-11-10T13:43:57.192Z,7.90
2017-11-10T13:46:26.349Z,7.90
2017-11-10T13:48:54.600Z,7.90
2017-11-10T13:51:22.847Z,8.00
2017-11-10T13:53:51.860Z,8.00
2017-11-10T13:56:20.171Z,8.00
2017-11-10T13:58:48.432Z,8.10
2017-11-10T14:01:16.676Z,8.00
2017-11-10T14:03:44.931Z,8.00
2017-11-10T14:06:13.188Z,8.00
2017-11-10T14:08:41.443Z,8.00
2017-11-10T14:11:09.691Z,8.10
2017-11-10T14:13:38.043Z,8.10
2017-11-10T14:16:06.361Z,8.00
2017-11-10T14:18:36.126Z,7.90
2017-11-10T14:21:04.360Z,7.90
2017-11-10T14:23:32.640Z,7.90
2017-11-10T14:26:00.893Z,7.90
2017-11-10T14:28:29.197Z,7.90
2017-11-10T14:30:57.460Z,7.90
2017-11-10T14:33:25.760Z,7.80
2017-11-10T14:35:53.996Z,7.80
2017-11-10T14:38:22.303Z,7.70
2017-11-10T14:40:50.584Z,7.60
2017-11-10T14:43:18.860Z,7.60
2017-11-10T14:45:47.124Z,7.60
2017-11-10T14:48:15.379Z,7.60
2017-11-10T14:50:44.454Z,7.50
2017-11-10T14:53:12.712Z,7.50
2017-11-10T14:55:40.964Z,7.50
2017-11-10T14:58:09.248Z,7.50
2017-11-10T15:00:37.494Z,7.50
2017-11-10T15:03:06.542Z,7.60
2017-11-10T15:05:34.806Z,7.50
2017-11-10T15:08:03.089Z,7.60
2017-11-10T15:10:31.369Z,7.60
2017-11-10T15:12:59.641Z,7.60
2017-11-10T15:15:27.902Z,7.70
2017-11-10T15:17:56.417Z,7.70
2017-11-10T15:20:24.688Z,7.80
2017-11-10T15:22:52.971Z,7.80
2017-11-10T15:25:21.213Z,7.80
2017-11-10T15:27:50.240Z,7.90
2017-11-10T15:30:18.532Z,7.90
2017-11-10T15:32:46.812Z,7.90
2017-11-10T15:35:15.058Z,8.00
2017-11-10T15:37:44.064Z,8.00
2017-11-10T15:40:13.087Z,8.10
2017-11-10T15:42:41.344Z,8.00
2017-11-10T15:45:10.368Z,8.10
2017-11-10T15:47:38.613Z,8.10
2017-11-10T15:50:07.632Z,8.10
2017-11-10T15:52:35.878Z,8.10
2017-11-10T15:55:04.152Z,8.00
2017-11-10T15:57:32.408Z,8.10
2017-11-10T16:00:00.644Z,8.20
2017-11-10T16:02:28.895Z,8.30
2017-11-10T16:04:57.149Z,8.30
2017-11-10T16:07:25.420Z,8.20
2017-11-10T16:09:53.676Z,8.30
2017-11-10T16:12:21.924Z,8.30
2017-11-10T16:14:50.185Z,8.30
2017-11-10T16:17:18.446Z,8.40
2017-11-10T16:19:46.721Z,8.50
2017-11-10T16:22:14.973Z,8.50
2017-11-10T16:24:44.003Z,8.60
2017-11-10T16:27:12.237Z,8.60
2017-11-10T16:29:41.257Z,8.50
2017-11-10T16:32:09.487Z,8.50
2017-11-10T16:34:37.764Z,8.50
2017-11-10T16:37:15.478Z,8.60
2017-11-10T16:39:43.752Z,8.60
2017-11-10T16:42:12.005Z,8.50
2017-11-10T16:44:40.256Z,8.60
2017-11-10T16:47:09.326Z,8.60
2017-11-10T16:49:37.556Z,8.60
2017-11-10T16:52:05.841Z,8.60
2017-11-10T16:54:34.104Z,8.60
2017-11-10T16:57:02.331Z,8.60
2017-11-10T16:59:30.650Z,8.70
2017-11-10T17:01:58.876Z,8.60
2017-11-10T17:04:27.133Z,8.60
2017-11-10T17:06:55.377Z,8.70
2017-11-10T17:09:23.718Z,8.70
2017-11-10T17:11:51.943Z,8.70
2017-11-10T17:14:20.972Z,8.60
2017-11-10T17:16:49.212Z,8.60
2017-11-10T17:19:17.472Z,8.60
2017-11-10T17:21:45.721Z,8.50
2017-11-10T17:24:14.369Z,8.50
2017-11-10T17:26:42.756Z,8.60
2017-11-10T17:29:11.999Z,8.60
2017-11-10T17:31:40.278Z,8.60
2017-11-10T17:34:08.538Z,8.60
2017-11-10T17:36:36.773Z,8.60
2017-11-10T17:39:05.020Z,8.60
2017-11-10T17:41:33.299Z,8.60
2017-11-10T17:44:01.561Z,8.70
2017-11-10T17:46:29.820Z,8.70
2017-11-10T17:48:58.846Z,8.60
2017-11-10T17:51:27.079Z,8.60
2017-11-10T17:53:56.855Z,8.60
2017-11-10T17:56:25.084Z,8.60
2017-11-10T17:58:53.344Z,8.70
2017-11-10T18:01:21.592Z,8.70
2017-11-10T18:03:49.852Z,8.70
2017-11-10T18:06:18.098Z,8.70
2017-11-10T18:08:46.369Z,8.80
2017-11-10T18:11:15.225Z,8.80
2017-11-10T18:13:43.583Z,8.90
2017-11-10T18:16:11.862Z,8.90
2017-11-10T18:18:40.883Z,8.90
2017-11-10T18:21:09.156Z,8.90
2017-11-10T18:23:37.446Z,8.90
2017-11-10T18:26:05.728Z,8.80
2017-11-10T18:28:34.003Z,8.80
2017-11-10T18:31:02.286Z,8.80
2017-11-10T18:33:30.529Z,8.80
2017-11-10T18:35:58.857Z,8.80
2017-11-10T18:38:27.092Z,8.90
2017-11-10T18:40:56.115Z,9.00
2017-11-10T18:43:24.363Z,8.90
2017-11-10T18:45:52.628Z,8.90
2017-11-10T18:48:26.548Z,8.80
2017-11-10T18:50:54.824Z,8.90
2017-11-10T18:53:26.343Z,8.80
2017-11-10T18:55:54.608Z,8.80
2017-11-10T18:58:22.862Z,8.70
2017-11-10T19:00:51.925Z,8.80
2017-11-10T19:03:20.172Z,8.80
2017-11-10T19:05:49.293Z,8.80
2017-11-10T19:08:17.538Z,8.80
2017-11-10T19:10:45.808Z,8.90
2017-11-10T19:13:14.870Z,8.70
2017-11-10T19:15:43.120Z,8.70
2017-11-10T19:18:11.378Z,8.60
2017-11-10T19:20:39.687Z,8.70
2017-11-10T19:23:07.942Z,8.70
2017-11-10T19:25:36.191Z,8.70
2017-11-10T19:28:04.483Z,8.70
2017-11-10T19:30:33.503Z,8.60
2017-11-10T19:33:02.523Z,8.60
2017-11-10T19:35:30.764Z,8.60
2017-11-10T19:37:59.797Z,8.40
2017-11-10T19:40:28.036Z,8.40
2017-11-10T19:42:57.070Z,8.40
2017-11-10T19:45:25.307Z,8.40
2017-11-10T19:47:53.841Z,8.40
2017-11-10T19:50:22.885Z,8.40
2017-11-10T19:52:52.649Z,8.30
2017-11-10T19:55:20.946Z,8.30
2017-11-10T19:57:49.202Z,8.30
2017-11-10T20:00:17.445Z,8.40
2017-11-10T20:02:45.708Z,8.50
2017-11-10T20:05:13.962Z,8.50
2017-11-10T20:07:42.250Z,8.50
2017-11-10T20:10:10.496Z,8.50
2017-11-10T20:12:39.516Z,8.50
2017-11-10T20:15:07.765Z,8.50
2017-11-10T20:17:36.795Z,8.40
2017-11-10T20:20:05.061Z,8.50
2017-11-10T20:22:33.320Z,8.40
2017-11-10T20:25:02.329Z,8.20
2017-11-10T20:27:31.341Z,8.20
2017-11-10T20:29:59.604Z,8.20
2017-11-10T20:32:28.571Z,8.20
2017-11-10T20:34:56.838Z,8.10
2017-11-10T20:37:25.070Z,8.10
2017-11-10T20:39:54.104Z,8.20
2017-11-10T20:42:22.360Z,8.20
2017-11-10T20:44:51.387Z,8.20
2017-11-10T20:47:19.666Z,8.20
2017-11-10T20:49:47.936Z,8.20
2017-11-10T20:52:16.178Z,8.20
2017-11-10T20:54:45.204Z,8.20
2017-11-10T20:57:13.449Z,8.20
2017-11-10T20:59:41.740Z,8.20
2017-11-10T21:02:09.981Z,8.20
2017-11-10T21:04:38.239Z,8.20
2017-11-10T21:07:06.497Z,8.00
2017-11-10T21:09:35.521Z,8.10
2017-11-10T21:12:03.763Z,8.10
2017-11-10T21:14:32.823Z,8.10
2017-11-10T21:17:01.068Z,8.10
2017-11-10T21:19:29.370Z,8.10
2017-11-10T21:21:57.620Z,8.10
2017-11-10T21:24:26.632Z,7.90
2017-11-10T21:26:54.884Z,7.90
2017-11-10T21:29:24.016Z,7.60
2017-11-10T21:31:52.275Z,7.60
2017-11-10T21:34:20.537Z,7.70
2017-11-10T21:36:49.608Z,7.70
2017-11-10T21:39:17.949Z,7.70
2017-11-10T21:41:46.558Z,7.80
2017-11-10T21:44:14.837Z,7.80
2017-11-10T21:46:43.150Z,7.70
2017-11-10T21:49:12.347Z,7.60
2017-11-10T21:51:40.604Z,7.50
2017-11-10T21:54:08.901Z,7.50
2017-11-10T21:56:37.148Z,7.60
2017-11-10T21:59:05.395Z,7.50
2017-11-10T22:01:33.682Z,7.50
2017-11-10T22:04:02.703Z,7.50
2017-11-10T22:06:30.968Z,7.50
2017-11-10T22:08:59.214Z,7.40
2017-11-10T22:11:27.517Z,7.40
2017-11-10T22:13:56.516Z,7.40
2017-11-10T22:16:25.675Z,7.30
2017-11-10T22:18:53.920Z,7.30
2017-11-10T22:21:22.239Z,7.30
2017-11-10T22:23:50.463Z,7.40
2017-11-10T22:26:19.496Z,7.30
2017-11-10T22:28:47.736Z,7.30
2017-11-10T22:31:16.780Z,7.30
2017-11-10T22:33:45.195Z,7.30
2017-11-10T22:36:13.431Z,7.40
2017-11-10T22:38:41.676Z,7.50
2017-11-10T22:41:10.702Z,7.40
2017-11-10T22:43:38.939Z,7.40
2017-11-10T22:46:07.288Z,7.40
2017-11-10T22:48:35.565Z,7.30
2017-11-10T22:51:03.816Z,7.30
2017-11-10T22:53:32.817Z,7.00
2017-11-10T22:56:01.071Z,7.00
2017-11-10T22:58:29.403Z,7.00
2017-11-10T23:00:57.672Z,7.00
2017-11-10T23:03:25.972Z,7.00
2017-11-10T23:05:54.232Z,6.80
2017-11-10T23:08:22.504Z,6.80
2017-11-10T23:10:51.527Z,6.80
2017-11-10T23:13:19.774Z,6.70
2017-11-10T23:15:48.802Z,6.70
2017-11-10T23:18:17.050Z,6.70
2017-11-10T23:20:45.336Z,6.80
2017-11-10T23:23:14.352Z,6.80
2017-11-10T23:25:42.620Z,6.80
2017-11-10T23:28:10.864Z,6.90
2017-11-10T23:30:39.130Z,6.80
2017-11-10T23:33:07.360Z,6.80
2017-11-10T23:35:35.615Z,6.80
2017-11-10T23:38:04.633Z,6.80
2017-11-10T23:40:32.897Z,6.80
2017-11-10T23:43:01.131Z,6.90
2017-11-10T23:45:29.401Z,6.90
2017-11-10T23:47:57.653Z,6.80
2017-11-10T23:50:26.695Z,6.90
2017-11-10T23:52:54.938Z,6.90
2017-11-10T23:55:23.208Z,6.90
2017-11-10T23:57:52.213Z,6.90
